SGO200 ENGM-EBOS
Flight info
| Callsign | SGO200 |
|---|---|
| Flight time | 1h 48m |
| Altitude | 34000 |
| Route | VIPPA DCT DOROR DCT SUSET Z310 WOODY N872 NIK L179 COA |
| Aircraft | B738/M-SDE2E3FGHIRWXY/LB1 |
Departure
| Time | 2026-04-30 07:24 |
|---|---|
| Airport | Oslo-Gardermoen International Airport (ENGM) |
Arrival
| Time | 2026-04-30 09:12 |
|---|---|
| Airport | Ostend-Bruges International Airport (EBOS) |
| Time | Latitude | Longitude | Altitude | Speed | Heading |
|---|---|---|---|---|---|
| 2026-04-30 06:57 | 60.19307 | 11.08593 | 679 ft | 0 kts | 105° |
| 2026-04-30 07:13 | 60.19309 | 11.08578 | 679 ft | 2 kts | 105° |
| 2026-04-30 07:13 | 60.19313 | 11.08546 | 679 ft | 2 kts | 105° |
| 2026-04-30 07:13 | 60.19318 | 11.08515 | 677 ft | 2 kts | 100° |
| 2026-04-30 07:13 | 60.19318 | 11.08482 | 676 ft | 2 kts | 75° |
| 2026-04-30 07:14 | 60.19308 | 11.08457 | 678 ft | 2 kts | 10° |
| 2026-04-30 07:14 | 60.19308 | 11.08456 | 678 ft | 0 kts | 9° |
| 2026-04-30 07:14 | 60.19299 | 11.08454 | 676 ft | 4 kts | 9° |
| 2026-04-30 07:15 | 60.19279 | 11.08447 | 679 ft | 0 kts | 9° |
| 2026-04-30 07:16 | 60.19280 | 11.08447 | 679 ft | 1 kts | 8° |
| 2026-04-30 07:16 | 60.19286 | 11.08449 | 679 ft | 0 kts | 6° |
| 2026-04-30 07:17 | 60.19319 | 11.08451 | 678 ft | 9 kts | 0° |
| 2026-04-30 07:18 | 60.19406 | 11.08483 | 679 ft | 16 kts | 13° |
| 2026-04-30 07:18 | 60.19536 | 11.08542 | 679 ft | 23 kts | 18° |
| 2026-04-30 07:18 | 60.19713 | 11.08648 | 675 ft | 30 kts | 17° |
| 2026-04-30 07:18 | 60.19929 | 11.08776 | 674 ft | 34 kts | 18° |
| 2026-04-30 07:19 | 60.20154 | 11.08896 | 677 ft | 31 kts | 15° |
| 2026-04-30 07:19 | 60.20356 | 11.09007 | 678 ft | 29 kts | 14° |
| 2026-04-30 07:19 | 60.20544 | 11.09125 | 677 ft | 27 kts | 15° |
| 2026-04-30 07:19 | 60.20723 | 11.09219 | 680 ft | 26 kts | 13° |
| 2026-04-30 07:20 | 60.20890 | 11.09320 | 684 ft | 24 kts | 17° |
| 2026-04-30 07:20 | 60.21047 | 11.09409 | 681 ft | 23 kts | 17° |
| 2026-04-30 07:20 | 60.21198 | 11.09492 | 679 ft | 22 kts | 17° |
| 2026-04-30 07:20 | 60.21343 | 11.09582 | 681 ft | 22 kts | 17° |
| 2026-04-30 07:21 | 60.21487 | 11.09640 | 681 ft | 21 kts | 349° |
| 2026-04-30 07:21 | 60.21560 | 11.09412 | 683 ft | 20 kts | 287° |
| 2026-04-30 07:21 | 60.21557 | 11.09153 | 682 ft | 15 kts | 222° |
| 2026-04-30 07:21 | 60.21516 | 11.09113 | 683 ft | 0 kts | 197° |
| 2026-04-30 07:23 | 60.21331 | 11.09000 | 681 ft | 65 kts | 194° |
| 2026-04-30 07:23 | 60.20650 | 11.08607 | 674 ft | 134 kts | 197° |
| 2026-04-30 07:23 | 60.19970 | 11.08229 | 673 ft | 172 kts | 194° |
| 2026-04-30 07:24 | 60.18949 | 11.07723 | 1386 ft | 162 kts | 192° |
| 2026-04-30 07:24 | 60.17821 | 11.07181 | 2223 ft | 171 kts | 195° |
| 2026-04-30 07:24 | 60.16717 | 11.06052 | 2573 ft | 195 kts | 229° |
| 2026-04-30 07:24 | 60.15985 | 11.03616 | 2875 ft | 220 kts | 245° |
| 2026-04-30 07:25 | 60.15317 | 11.00663 | 3272 ft | 235 kts | 246° |
| 2026-04-30 07:25 | 60.14638 | 10.97610 | 3658 ft | 253 kts | 246° |
| 2026-04-30 07:25 | 60.13899 | 10.94330 | 4309 ft | 261 kts | 246° |
| 2026-04-30 07:25 | 60.13142 | 10.91009 | 5197 ft | 262 kts | 246° |
| 2026-04-30 07:26 | 60.12377 | 10.87682 | 6034 ft | 264 kts | 246° |
| 2026-04-30 07:26 | 60.11600 | 10.84320 | 6856 ft | 267 kts | 246° |
| 2026-04-30 07:26 | 60.10815 | 10.80923 | 7616 ft | 270 kts | 247° |
| 2026-04-30 07:26 | 60.10020 | 10.77488 | 8387 ft | 273 kts | 247° |
| 2026-04-30 07:27 | 60.09219 | 10.74020 | 9133 ft | 277 kts | 248° |
| 2026-04-30 07:27 | 60.08403 | 10.70496 | 9897 ft | 280 kts | 248° |
| 2026-04-30 07:27 | 60.07580 | 10.66948 | 10604 ft | 284 kts | 248° |
| 2026-04-30 07:27 | 60.06719 | 10.63238 | 10848 ft | 306 kts | 248° |
| 2026-04-30 07:28 | 60.05764 | 10.59268 | 11011 ft | 329 kts | 242° |
| 2026-04-30 07:28 | 60.04127 | 10.55854 | 11300 ft | 353 kts | 215° |
| 2026-04-30 07:28 | 60.01815 | 10.54041 | 11905 ft | 363 kts | 194° |
| 2026-04-30 07:28 | 59.99305 | 10.53213 | 12554 ft | 369 kts | 189° |
| 2026-04-30 07:29 | 59.96737 | 10.52557 | 13131 ft | 375 kts | 189° |
| 2026-04-30 07:29 | 59.94131 | 10.51861 | 13727 ft | 381 kts | 190° |
| 2026-04-30 07:29 | 59.91501 | 10.51010 | 14347 ft | 385 kts | 191° |
| 2026-04-30 07:29 | 59.88858 | 10.50070 | 14933 ft | 388 kts | 192° |
| 2026-04-30 07:30 | 59.83509 | 10.48169 | 16150 ft | 394 kts | 191° |
| 2026-04-30 07:30 | 59.80793 | 10.47236 | 16729 ft | 397 kts | 191° |
| 2026-04-30 07:30 | 59.78089 | 10.46326 | 17310 ft | 401 kts | 191° |
| 2026-04-30 07:31 | 59.75331 | 10.45409 | 17890 ft | 404 kts | 191° |
| 2026-04-30 07:31 | 59.72544 | 10.44487 | 18456 ft | 407 kts | 191° |
| 2026-04-30 07:31 | 59.69741 | 10.43563 | 18983 ft | 410 kts | 191° |
| 2026-04-30 07:31 | 59.66911 | 10.42631 | 19499 ft | 413 kts | 191° |
| 2026-04-30 07:32 | 59.64069 | 10.41696 | 20007 ft | 415 kts | 191° |
| 2026-04-30 07:32 | 59.61218 | 10.40759 | 20509 ft | 417 kts | 191° |
| 2026-04-30 07:32 | 59.58343 | 10.39814 | 20999 ft | 420 kts | 191° |
| 2026-04-30 07:32 | 59.55454 | 10.38848 | 21482 ft | 423 kts | 191° |
| 2026-04-30 07:33 | 59.52544 | 10.37864 | 21964 ft | 425 kts | 191° |
| 2026-04-30 07:33 | 59.49623 | 10.36872 | 22435 ft | 428 kts | 192° |
| 2026-04-30 07:33 | 59.46679 | 10.35874 | 22899 ft | 430 kts | 192° |
| 2026-04-30 07:33 | 59.43730 | 10.34877 | 23349 ft | 432 kts | 192° |
| 2026-04-30 07:34 | 59.40751 | 10.33875 | 23800 ft | 435 kts | 192° |
| 2026-04-30 07:34 | 59.37755 | 10.32869 | 24205 ft | 437 kts | 192° |
| 2026-04-30 07:34 | 59.34750 | 10.31863 | 24575 ft | 439 kts | 191° |
| 2026-04-30 07:34 | 59.31734 | 10.30856 | 24956 ft | 441 kts | 191° |
| 2026-04-30 07:35 | 59.28697 | 10.29843 | 25326 ft | 443 kts | 191° |
| 2026-04-30 07:35 | 59.25651 | 10.28828 | 25669 ft | 445 kts | 191° |
| 2026-04-30 07:35 | 59.22593 | 10.27811 | 26028 ft | 447 kts | 191° |
| 2026-04-30 07:35 | 59.19520 | 10.26791 | 26374 ft | 449 kts | 191° |
| 2026-04-30 07:36 | 59.16433 | 10.25781 | 26709 ft | 451 kts | 190° |
| 2026-04-30 07:36 | 59.13304 | 10.24986 | 27049 ft | 454 kts | 187° |
| 2026-04-30 07:36 | 59.10154 | 10.24478 | 27358 ft | 456 kts | 185° |
| 2026-04-30 07:36 | 59.06978 | 10.24195 | 27663 ft | 458 kts | 183° |
| 2026-04-30 07:37 | 59.03781 | 10.24023 | 27974 ft | 460 kts | 183° |
| 2026-04-30 07:37 | 59.00574 | 10.23756 | 28272 ft | 462 kts | 184° |
| 2026-04-30 07:37 | 58.97355 | 10.23363 | 28558 ft | 464 kts | 185° |
| 2026-04-30 07:37 | 58.94147 | 10.22706 | 28793 ft | 465 kts | 195° |
| 2026-04-30 07:38 | 58.91177 | 10.20346 | 29027 ft | 462 kts | 212° |
| 2026-04-30 07:38 | 58.88399 | 10.17251 | 29408 ft | 461 kts | 212° |
| 2026-04-30 07:38 | 58.85558 | 10.14341 | 29650 ft | 464 kts | 207° |
| 2026-04-30 07:38 | 58.82598 | 10.11790 | 29888 ft | 467 kts | 204° |
| 2026-04-30 07:39 | 58.79582 | 10.09414 | 30223 ft | 467 kts | 204° |
| 2026-04-30 07:39 | 58.76569 | 10.07072 | 30629 ft | 465 kts | 204° |
| 2026-04-30 07:39 | 58.73585 | 10.04702 | 30994 ft | 463 kts | 204° |
| 2026-04-30 07:39 | 58.70628 | 10.02283 | 31294 ft | 462 kts | 205° |
| 2026-04-30 07:40 | 58.67681 | 9.99811 | 31574 ft | 462 kts | 205° |
| 2026-04-30 07:40 | 58.64738 | 9.97303 | 31889 ft | 461 kts | 206° |
| 2026-04-30 07:40 | 58.61816 | 9.94793 | 32213 ft | 460 kts | 206° |
| 2026-04-30 07:40 | 58.58902 | 9.92285 | 32518 ft | 459 kts | 206° |
| 2026-04-30 07:41 | 58.55992 | 9.89782 | 32797 ft | 459 kts | 206° |
| 2026-04-30 07:41 | 58.53076 | 9.87282 | 33086 ft | 458 kts | 206° |
| 2026-04-30 07:41 | 58.50173 | 9.84801 | 33390 ft | 457 kts | 205° |
| 2026-04-30 07:41 | 58.47270 | 9.82328 | 33684 ft | 456 kts | 205° |
| 2026-04-30 07:42 | 58.44371 | 9.79864 | 33956 ft | 456 kts | 205° |
| 2026-04-30 07:42 | 58.41475 | 9.77407 | 34213 ft | 455 kts | 205° |
| 2026-04-30 07:42 | 58.38581 | 9.74958 | 34445 ft | 455 kts | 205° |
| 2026-04-30 07:43 | 58.32762 | 9.70044 | 34425 ft | 457 kts | 205° |
| 2026-04-30 07:43 | 58.26967 | 9.65169 | 34422 ft | 454 kts | 205° |
| 2026-04-30 07:44 | 58.21241 | 9.60370 | 34423 ft | 452 kts | 205° |
| 2026-04-30 07:44 | 58.15504 | 9.55577 | 34425 ft | 450 kts | 205° |
| 2026-04-30 07:45 | 58.09777 | 9.50810 | 34425 ft | 450 kts | 205° |
| 2026-04-30 07:45 | 58.04037 | 9.46047 | 34432 ft | 451 kts | 205° |
| 2026-04-30 07:46 | 57.98281 | 9.41288 | 34436 ft | 452 kts | 205° |
| 2026-04-30 07:46 | 57.92503 | 9.36529 | 34435 ft | 454 kts | 205° |
| 2026-04-30 07:47 | 57.86697 | 9.31763 | 34441 ft | 456 kts | 205° |
| 2026-04-30 07:47 | 57.80872 | 9.26999 | 34441 ft | 458 kts | 205° |
| 2026-04-30 07:48 | 57.76011 | 9.23036 | 34443 ft | 459 kts | 205° |
| 2026-04-30 07:48 | 57.70151 | 9.18274 | 34448 ft | 460 kts | 205° |
| 2026-04-30 07:49 | 57.64275 | 9.13518 | 34445 ft | 460 kts | 205° |
| 2026-04-30 07:49 | 57.58404 | 9.08781 | 34457 ft | 460 kts | 205° |
| 2026-04-30 07:50 | 57.52528 | 9.04058 | 34458 ft | 460 kts | 205° |
| 2026-04-30 07:50 | 57.46659 | 8.99357 | 34452 ft | 459 kts | 205° |
| 2026-04-30 07:51 | 57.40801 | 8.94680 | 34465 ft | 458 kts | 205° |
| 2026-04-30 07:51 | 57.34942 | 8.90020 | 34466 ft | 458 kts | 205° |
| 2026-04-30 07:52 | 57.29094 | 8.85383 | 34475 ft | 457 kts | 205° |
| 2026-04-30 07:52 | 57.23252 | 8.80769 | 34472 ft | 456 kts | 205° |
| 2026-04-30 07:53 | 57.17411 | 8.76170 | 34478 ft | 456 kts | 205° |
| 2026-04-30 07:53 | 57.11585 | 8.71599 | 34482 ft | 455 kts | 205° |
| 2026-04-30 07:54 | 57.05756 | 8.67042 | 34485 ft | 455 kts | 205° |
| 2026-04-30 07:54 | 56.99929 | 8.62501 | 34488 ft | 455 kts | 204° |
| 2026-04-30 07:55 | 56.94108 | 8.57981 | 34493 ft | 454 kts | 204° |
| 2026-04-30 07:55 | 56.88292 | 8.53480 | 34491 ft | 454 kts | 204° |
| 2026-04-30 07:56 | 56.82511 | 8.49021 | 34495 ft | 454 kts | 204° |
| 2026-04-30 07:56 | 56.76691 | 8.44547 | 34495 ft | 454 kts | 204° |
| 2026-04-30 07:57 | 56.70874 | 8.40090 | 34495 ft | 454 kts | 204° |
| 2026-04-30 07:57 | 56.65053 | 8.35645 | 34506 ft | 454 kts | 204° |
| 2026-04-30 07:58 | 56.59238 | 8.31220 | 34509 ft | 453 kts | 204° |
| 2026-04-30 07:58 | 56.53411 | 8.26801 | 34510 ft | 454 kts | 204° |
| 2026-04-30 07:59 | 56.47588 | 8.22399 | 34512 ft | 454 kts | 204° |
| 2026-04-30 07:59 | 56.41761 | 8.18009 | 34513 ft | 454 kts | 204° |
| 2026-04-30 08:00 | 56.33015 | 8.11447 | 34521 ft | 454 kts | 204° |
| 2026-04-30 08:00 | 56.27174 | 8.07083 | 34518 ft | 454 kts | 204° |
| 2026-04-30 08:01 | 56.21332 | 8.02732 | 34517 ft | 454 kts | 203° |
| 2026-04-30 08:01 | 56.15487 | 7.98394 | 34523 ft | 455 kts | 203° |
| 2026-04-30 08:02 | 56.06712 | 7.91908 | 34516 ft | 455 kts | 203° |
| 2026-04-30 08:03 | 55.94995 | 7.83297 | 34527 ft | 455 kts | 203° |
| 2026-04-30 08:04 | 55.89131 | 7.79008 | 34525 ft | 455 kts | 203° |
| 2026-04-30 08:04 | 55.83274 | 7.74739 | 34518 ft | 455 kts | 203° |
| 2026-04-30 08:05 | 55.77417 | 7.70484 | 34521 ft | 455 kts | 202° |
| 2026-04-30 08:05 | 55.71558 | 7.66241 | 34520 ft | 455 kts | 202° |
| 2026-04-30 08:06 | 55.65699 | 7.62012 | 34522 ft | 454 kts | 202° |
| 2026-04-30 08:06 | 55.59844 | 7.57800 | 34521 ft | 454 kts | 202° |
| 2026-04-30 08:07 | 55.53993 | 7.53603 | 34519 ft | 454 kts | 202° |
| 2026-04-30 08:07 | 55.48137 | 7.49417 | 34522 ft | 454 kts | 202° |
| 2026-04-30 08:08 | 55.42318 | 7.45270 | 34520 ft | 454 kts | 202° |
| 2026-04-30 08:08 | 55.36461 | 7.41110 | 34521 ft | 454 kts | 202° |
| 2026-04-30 08:09 | 55.30602 | 7.36961 | 34524 ft | 454 kts | 202° |
| 2026-04-30 08:09 | 55.24740 | 7.32823 | 34518 ft | 454 kts | 202° |
| 2026-04-30 08:10 | 55.18879 | 7.28699 | 34524 ft | 454 kts | 202° |
| 2026-04-30 08:10 | 55.13002 | 7.24577 | 34526 ft | 455 kts | 202° |
| 2026-04-30 08:11 | 55.07127 | 7.20469 | 34527 ft | 455 kts | 202° |
| 2026-04-30 08:11 | 55.01249 | 7.16370 | 34525 ft | 455 kts | 202° |
| 2026-04-30 08:12 | 54.95403 | 7.12149 | 34522 ft | 455 kts | 203° |
| 2026-04-30 08:12 | 54.89602 | 7.07721 | 34521 ft | 455 kts | 204° |
| 2026-04-30 08:13 | 54.83806 | 7.03294 | 34527 ft | 455 kts | 204° |
| 2026-04-30 08:13 | 54.77999 | 6.98908 | 34517 ft | 455 kts | 203° |
| 2026-04-30 08:14 | 54.72185 | 6.94551 | 34522 ft | 455 kts | 203° |
| 2026-04-30 08:14 | 54.66370 | 6.90212 | 34523 ft | 455 kts | 203° |
| 2026-04-30 08:15 | 54.60551 | 6.85884 | 34520 ft | 455 kts | 203° |
| 2026-04-30 08:15 | 54.54727 | 6.81564 | 34526 ft | 456 kts | 203° |
| 2026-04-30 08:16 | 54.48908 | 6.77260 | 34520 ft | 456 kts | 203° |
| 2026-04-30 08:16 | 54.43074 | 6.72959 | 34522 ft | 456 kts | 203° |
| 2026-04-30 08:17 | 54.37242 | 6.68672 | 34518 ft | 456 kts | 203° |
| 2026-04-30 08:17 | 54.31412 | 6.64401 | 34518 ft | 456 kts | 203° |
| 2026-04-30 08:18 | 54.25575 | 6.60137 | 34517 ft | 456 kts | 202° |
| 2026-04-30 08:18 | 54.19735 | 6.55884 | 34515 ft | 456 kts | 202° |
| 2026-04-30 08:19 | 54.13889 | 6.51640 | 34510 ft | 456 kts | 202° |
| 2026-04-30 08:19 | 54.08080 | 6.47436 | 34514 ft | 457 kts | 202° |
| 2026-04-30 08:20 | 54.02227 | 6.43213 | 34509 ft | 457 kts | 202° |
| 2026-04-30 08:20 | 53.96373 | 6.39002 | 34500 ft | 457 kts | 202° |
| 2026-04-30 08:21 | 53.90513 | 6.34800 | 34504 ft | 457 kts | 202° |
| 2026-04-30 08:21 | 53.84648 | 6.30607 | 34501 ft | 457 kts | 202° |
| 2026-04-30 08:22 | 53.78782 | 6.26427 | 34498 ft | 458 kts | 202° |
| 2026-04-30 08:22 | 53.72916 | 6.22258 | 34495 ft | 458 kts | 202° |
| 2026-04-30 08:23 | 53.67042 | 6.18097 | 34492 ft | 458 kts | 202° |
| 2026-04-30 08:23 | 53.61173 | 6.13952 | 34487 ft | 458 kts | 202° |
| 2026-04-30 08:24 | 53.55298 | 6.09815 | 34482 ft | 457 kts | 201° |
| 2026-04-30 08:24 | 53.49429 | 6.05695 | 34473 ft | 457 kts | 201° |
| 2026-04-30 08:25 | 53.43558 | 6.01586 | 34479 ft | 457 kts | 201° |
| 2026-04-30 08:25 | 53.37691 | 5.97491 | 34486 ft | 457 kts | 201° |
| 2026-04-30 08:26 | 53.31820 | 5.93407 | 34478 ft | 457 kts | 201° |
| 2026-04-30 08:26 | 53.25952 | 5.89336 | 34484 ft | 456 kts | 201° |
| 2026-04-30 08:27 | 53.20086 | 5.85280 | 34482 ft | 456 kts | 201° |
| 2026-04-30 08:27 | 53.14230 | 5.81241 | 34477 ft | 456 kts | 201° |
| 2026-04-30 08:28 | 53.08409 | 5.77240 | 34482 ft | 455 kts | 201° |
| 2026-04-30 08:28 | 53.02546 | 5.73221 | 34474 ft | 455 kts | 201° |
| 2026-04-30 08:29 | 52.96687 | 5.69216 | 34471 ft | 455 kts | 200° |
| 2026-04-30 08:29 | 52.90831 | 5.65226 | 34463 ft | 455 kts | 200° |
| 2026-04-30 08:30 | 52.84970 | 5.61243 | 34457 ft | 455 kts | 200° |
| 2026-04-30 08:30 | 52.79114 | 5.57276 | 34459 ft | 455 kts | 200° |
| 2026-04-30 08:31 | 52.73249 | 5.53314 | 34457 ft | 455 kts | 200° |
| 2026-04-30 08:31 | 52.67383 | 5.49363 | 34454 ft | 455 kts | 200° |
| 2026-04-30 08:32 | 52.61521 | 5.45426 | 34452 ft | 455 kts | 200° |
| 2026-04-30 08:32 | 52.55656 | 5.41498 | 34457 ft | 455 kts | 199° |
| 2026-04-30 08:33 | 52.49842 | 5.37614 | 34447 ft | 445 kts | 199° |
| 2026-04-30 08:33 | 52.44146 | 5.33823 | 34450 ft | 441 kts | 199° |
| 2026-04-30 08:33 | 52.41299 | 5.31932 | 34228 ft | 444 kts | 199° |
| 2026-04-30 08:34 | 52.38451 | 5.30042 | 33930 ft | 438 kts | 199° |
| 2026-04-30 08:34 | 52.35638 | 5.28177 | 33504 ft | 433 kts | 199° |
| 2026-04-30 08:34 | 52.32865 | 5.26341 | 33111 ft | 429 kts | 199° |
| 2026-04-30 08:34 | 52.30142 | 5.24541 | 32706 ft | 426 kts | 199° |
| 2026-04-30 08:35 | 52.28295 | 5.23323 | 32441 ft | 424 kts | 199° |
| 2026-04-30 08:35 | 52.24689 | 5.20946 | 31913 ft | 420 kts | 199° |
| 2026-04-30 08:35 | 52.21999 | 5.19175 | 31512 ft | 417 kts | 199° |
| 2026-04-30 08:35 | 52.19302 | 5.17401 | 31137 ft | 415 kts | 199° |
| 2026-04-30 08:36 | 52.16638 | 5.15651 | 30756 ft | 412 kts | 199° |
| 2026-04-30 08:36 | 52.13981 | 5.13909 | 30364 ft | 410 kts | 199° |
| 2026-04-30 08:36 | 52.12202 | 5.12749 | 30068 ft | 408 kts | 199° |
| 2026-04-30 08:36 | 52.09613 | 5.11116 | 29782 ft | 401 kts | 198° |
| 2026-04-30 08:37 | 52.06981 | 5.09490 | 29391 ft | 398 kts | 198° |
| 2026-04-30 08:37 | 52.04404 | 5.07903 | 28970 ft | 395 kts | 198° |
| 2026-04-30 08:37 | 52.01838 | 5.06316 | 28590 ft | 392 kts | 198° |
| 2026-04-30 08:37 | 51.99334 | 5.04764 | 28198 ft | 390 kts | 198° |
| 2026-04-30 08:38 | 51.96775 | 5.03178 | 27807 ft | 388 kts | 198° |
| 2026-04-30 08:38 | 51.94290 | 5.01642 | 27426 ft | 386 kts | 198° |
| 2026-04-30 08:38 | 51.91757 | 5.00081 | 27039 ft | 383 kts | 198° |
| 2026-04-30 08:38 | 51.89267 | 4.98550 | 26659 ft | 382 kts | 198° |
| 2026-04-30 08:39 | 51.86826 | 4.97049 | 26288 ft | 380 kts | 198° |
| 2026-04-30 08:39 | 51.84358 | 4.95534 | 25917 ft | 378 kts | 198° |
| 2026-04-30 08:39 | 51.81902 | 4.94027 | 25530 ft | 377 kts | 198° |
| 2026-04-30 08:39 | 51.79450 | 4.92524 | 25156 ft | 376 kts | 198° |
| 2026-04-30 08:40 | 51.77004 | 4.91026 | 24780 ft | 375 kts | 198° |
| 2026-04-30 08:40 | 51.74564 | 4.89534 | 24402 ft | 375 kts | 198° |
| 2026-04-30 08:40 | 51.72094 | 4.88025 | 24001 ft | 375 kts | 198° |
| 2026-04-30 08:40 | 51.69686 | 4.86555 | 23592 ft | 374 kts | 198° |
| 2026-04-30 08:41 | 51.67256 | 4.85073 | 23187 ft | 373 kts | 198° |
| 2026-04-30 08:41 | 51.64832 | 4.83596 | 22797 ft | 371 kts | 198° |
| 2026-04-30 08:41 | 51.62421 | 4.82129 | 22413 ft | 369 kts | 198° |
| 2026-04-30 08:41 | 51.60023 | 4.80664 | 22039 ft | 368 kts | 199° |
| 2026-04-30 08:42 | 51.57718 | 4.78878 | 21660 ft | 369 kts | 208° |
| 2026-04-30 08:42 | 51.55715 | 4.76302 | 21239 ft | 372 kts | 229° |
| 2026-04-30 08:42 | 51.54359 | 4.72789 | 20954 ft | 369 kts | 242° |
| 2026-04-30 08:42 | 51.53200 | 4.69118 | 20565 ft | 369 kts | 242° |
| 2026-04-30 08:43 | 51.51960 | 4.65502 | 20181 ft | 368 kts | 238° |
| 2026-04-30 08:43 | 51.50624 | 4.62015 | 19807 ft | 366 kts | 236° |
| 2026-04-30 08:43 | 51.49258 | 4.58580 | 19442 ft | 365 kts | 236° |
| 2026-04-30 08:43 | 51.47887 | 4.55142 | 19059 ft | 365 kts | 236° |
| 2026-04-30 08:44 | 51.46530 | 4.51713 | 18692 ft | 365 kts | 236° |
| 2026-04-30 08:44 | 51.45177 | 4.48270 | 18287 ft | 364 kts | 236° |
| 2026-04-30 08:44 | 51.43834 | 4.44843 | 17896 ft | 363 kts | 236° |
| 2026-04-30 08:44 | 51.42493 | 4.41420 | 17519 ft | 361 kts | 236° |
| 2026-04-30 08:45 | 51.41023 | 4.38208 | 17116 ft | 357 kts | 223° |
| 2026-04-30 08:45 | 51.39163 | 4.35649 | 16815 ft | 350 kts | 211° |
| 2026-04-30 08:45 | 51.37021 | 4.33824 | 16372 ft | 347 kts | 200° |
| 2026-04-30 08:45 | 51.34808 | 4.32366 | 16046 ft | 344 kts | 199° |
| 2026-04-30 08:46 | 51.32615 | 4.30827 | 15664 ft | 345 kts | 201° |
| 2026-04-30 08:46 | 51.30458 | 4.29153 | 15302 ft | 344 kts | 203° |
| 2026-04-30 08:46 | 51.28306 | 4.27432 | 14889 ft | 346 kts | 203° |
| 2026-04-30 08:46 | 51.26160 | 4.25745 | 14542 ft | 344 kts | 202° |
| 2026-04-30 08:47 | 51.24004 | 4.24089 | 14176 ft | 343 kts | 201° |
| 2026-04-30 08:47 | 51.21844 | 4.22447 | 13748 ft | 343 kts | 202° |
| 2026-04-30 08:47 | 51.19850 | 4.20341 | 13311 ft | 350 kts | 223° |
| 2026-04-30 08:47 | 51.18494 | 4.17128 | 13010 ft | 352 kts | 246° |
| 2026-04-30 08:48 | 51.17994 | 4.13324 | 12588 ft | 354 kts | 270° |
| 2026-04-30 08:48 | 51.18395 | 4.09489 | 12255 ft | 351 kts | 289° |
| 2026-04-30 08:48 | 51.19245 | 4.05850 | 11897 ft | 350 kts | 292° |
| 2026-04-30 08:48 | 51.20152 | 4.02251 | 11520 ft | 350 kts | 292° |
| 2026-04-30 08:49 | 51.20988 | 3.98621 | 11155 ft | 346 kts | 289° |
| 2026-04-30 08:49 | 51.21753 | 3.95039 | 10797 ft | 337 kts | 289° |
| 2026-04-30 08:49 | 51.22502 | 3.91559 | 10615 ft | 324 kts | 289° |
| 2026-04-30 08:49 | 51.23229 | 3.88227 | 10456 ft | 314 kts | 289° |
| 2026-04-30 08:50 | 51.23950 | 3.84961 | 10359 ft | 311 kts | 289° |
| 2026-04-30 08:50 | 51.24661 | 3.81744 | 10317 ft | 302 kts | 289° |
| 2026-04-30 08:50 | 51.25348 | 3.78643 | 10319 ft | 291 kts | 289° |
| 2026-04-30 08:50 | 51.26011 | 3.75644 | 10300 ft | 281 kts | 289° |
| 2026-04-30 08:51 | 51.26649 | 3.72759 | 10295 ft | 271 kts | 289° |
| 2026-04-30 08:51 | 51.27266 | 3.69958 | 10276 ft | 266 kts | 289° |
| 2026-04-30 08:51 | 51.27891 | 3.67122 | 9741 ft | 278 kts | 289° |
| 2026-04-30 08:51 | 51.28562 | 3.64077 | 8991 ft | 299 kts | 289° |
| 2026-04-30 08:52 | 51.29256 | 3.60926 | 8724 ft | 299 kts | 289° |
| 2026-04-30 08:52 | 51.29939 | 3.57816 | 8570 ft | 295 kts | 289° |
| 2026-04-30 08:52 | 51.30617 | 3.54718 | 8322 ft | 295 kts | 289° |
| 2026-04-30 08:52 | 51.31296 | 3.51615 | 8082 ft | 295 kts | 289° |
| 2026-04-30 08:53 | 51.31970 | 3.48526 | 7875 ft | 294 kts | 289° |
| 2026-04-30 08:53 | 51.32632 | 3.45485 | 7645 ft | 292 kts | 289° |
| 2026-04-30 08:53 | 51.33309 | 3.42379 | 7388 ft | 293 kts | 289° |
| 2026-04-30 08:53 | 51.33975 | 3.39311 | 7192 ft | 291 kts | 289° |
| 2026-04-30 08:54 | 51.34404 | 3.36212 | 6893 ft | 291 kts | 265° |
| 2026-04-30 08:54 | 51.34055 | 3.33025 | 6701 ft | 286 kts | 253° |
| 2026-04-30 08:54 | 51.33600 | 3.29858 | 6157 ft | 298 kts | 255° |
| 2026-04-30 08:54 | 51.33183 | 3.26631 | 5759 ft | 303 kts | 256° |
| 2026-04-30 08:55 | 51.32764 | 3.23296 | 5341 ft | 308 kts | 256° |
| 2026-04-30 08:55 | 51.32344 | 3.19935 | 4916 ft | 307 kts | 255° |
| 2026-04-30 08:55 | 51.31928 | 3.16547 | 4445 ft | 305 kts | 256° |
| 2026-04-30 08:55 | 51.31526 | 3.13241 | 4057 ft | 301 kts | 256° |
| 2026-04-30 08:56 | 51.31135 | 3.10014 | 3680 ft | 298 kts | 256° |
| 2026-04-30 08:56 | 51.30746 | 3.06784 | 3314 ft | 292 kts | 256° |
| 2026-04-30 08:56 | 51.30371 | 3.03629 | 2954 ft | 287 kts | 256° |
| 2026-04-30 08:56 | 51.30007 | 3.00528 | 2605 ft | 281 kts | 256° |
| 2026-04-30 08:57 | 51.29657 | 2.97498 | 2348 ft | 273 kts | 255° |
| 2026-04-30 08:57 | 51.29339 | 2.94598 | 2307 ft | 256 kts | 256° |
| 2026-04-30 08:57 | 51.29056 | 2.91895 | 2291 ft | 239 kts | 256° |
| 2026-04-30 08:57 | 51.28800 | 2.89361 | 2268 ft | 223 kts | 256° |
| 2026-04-30 08:58 | 51.28556 | 2.86910 | 2339 ft | 226 kts | 256° |
| 2026-04-30 08:58 | 51.28309 | 2.84454 | 2295 ft | 218 kts | 256° |
| 2026-04-30 08:58 | 51.28084 | 2.82150 | 2275 ft | 204 kts | 256° |
| 2026-04-30 08:58 | 51.27874 | 2.79929 | 2323 ft | 204 kts | 256° |
| 2026-04-30 08:59 | 51.27659 | 2.77668 | 2289 ft | 207 kts | 255° |
| 2026-04-30 08:59 | 51.27458 | 2.75482 | 2271 ft | 191 kts | 256° |
| 2026-04-30 08:59 | 51.27265 | 2.73411 | 2291 ft | 188 kts | 256° |
| 2026-04-30 08:59 | 51.27062 | 2.71326 | 2298 ft | 192 kts | 256° |
| 2026-04-30 09:00 | 51.26859 | 2.69222 | 2294 ft | 190 kts | 255° |
| 2026-04-30 09:00 | 51.26675 | 2.67139 | 2272 ft | 188 kts | 256° |
| 2026-04-30 09:00 | 51.26499 | 2.65095 | 2293 ft | 186 kts | 256° |
| 2026-04-30 09:00 | 51.26311 | 2.63007 | 2305 ft | 192 kts | 256° |
| 2026-04-30 09:01 | 51.26110 | 2.60908 | 2329 ft | 191 kts | 256° |
| 2026-04-30 09:01 | 51.25906 | 2.58803 | 2299 ft | 192 kts | 255° |
| 2026-04-30 09:01 | 51.25702 | 2.56687 | 2116 ft | 194 kts | 255° |
| 2026-04-30 09:01 | 51.25511 | 2.54576 | 2014 ft | 189 kts | 256° |
| 2026-04-30 09:02 | 51.25125 | 2.50420 | 2013 ft | 190 kts | 253° |
| 2026-04-30 09:02 | 51.24613 | 2.48572 | 2011 ft | 178 kts | 227° |
| 2026-04-30 09:02 | 51.23910 | 2.46916 | 2010 ft | 183 kts | 226° |
| 2026-04-30 09:03 | 51.23062 | 2.45481 | 1979 ft | 171 kts | 199° |
| 2026-04-30 09:03 | 51.22038 | 2.44729 | 2001 ft | 158 kts | 195° |
| 2026-04-30 09:03 | 51.21040 | 2.44007 | 2005 ft | 156 kts | 195° |
| 2026-04-30 09:03 | 51.20056 | 2.43295 | 1991 ft | 156 kts | 195° |
| 2026-04-30 09:04 | 51.19068 | 2.42577 | 1998 ft | 155 kts | 195° |
| 2026-04-30 09:04 | 51.18094 | 2.42211 | 1973 ft | 134 kts | 159° |
| 2026-04-30 09:04 | 51.17215 | 2.42665 | 2022 ft | 136 kts | 156° |
| 2026-04-30 09:04 | 51.16279 | 2.43136 | 2035 ft | 143 kts | 156° |
| 2026-04-30 09:05 | 51.15428 | 2.43837 | 2018 ft | 133 kts | 140° |
| 2026-04-30 09:05 | 51.14683 | 2.44734 | 2002 ft | 137 kts | 137° |
| 2026-04-30 09:05 | 51.14237 | 2.46022 | 1948 ft | 139 kts | 90° |
| 2026-04-30 09:05 | 51.14476 | 2.47587 | 1981 ft | 146 kts | 87° |
| 2026-04-30 09:06 | 51.14578 | 2.49099 | 1987 ft | 134 kts | 91° |
| 2026-04-30 09:06 | 51.14676 | 2.50633 | 2008 ft | 142 kts | 88° |
| 2026-04-30 09:06 | 51.14826 | 2.52182 | 2005 ft | 141 kts | 85° |
| 2026-04-30 09:06 | 51.15015 | 2.53721 | 2002 ft | 142 kts | 84° |
| 2026-04-30 09:07 | 51.15222 | 2.55244 | 1999 ft | 140 kts | 84° |
| 2026-04-30 09:07 | 51.15435 | 2.56745 | 1990 ft | 139 kts | 84° |
| 2026-04-30 09:07 | 51.15650 | 2.58233 | 1993 ft | 137 kts | 83° |
| 2026-04-30 09:07 | 51.15868 | 2.59722 | 2007 ft | 138 kts | 84° |
| 2026-04-30 09:08 | 51.16088 | 2.61226 | 2009 ft | 139 kts | 84° |
| 2026-04-30 09:08 | 51.16311 | 2.62746 | 2006 ft | 145 kts | 82° |
| 2026-04-30 09:08 | 51.16538 | 2.64281 | 1984 ft | 141 kts | 83° |
| 2026-04-30 09:08 | 51.16762 | 2.65792 | 1985 ft | 139 kts | 83° |
| 2026-04-30 09:09 | 51.16984 | 2.67302 | 2003 ft | 142 kts | 83° |
| 2026-04-30 09:09 | 51.17211 | 2.68835 | 2011 ft | 141 kts | 83° |
| 2026-04-30 09:09 | 51.17433 | 2.70329 | 1948 ft | 138 kts | 82° |
| 2026-04-30 09:09 | 51.17651 | 2.71801 | 1797 ft | 136 kts | 82° |
| 2026-04-30 09:10 | 51.17869 | 2.73269 | 1607 ft | 135 kts | 81° |
| 2026-04-30 09:10 | 51.18086 | 2.74731 | 1434 ft | 138 kts | 81° |
| 2026-04-30 09:10 | 51.18310 | 2.76245 | 1243 ft | 140 kts | 80° |
| 2026-04-30 09:10 | 51.18531 | 2.77734 | 1059 ft | 136 kts | 80° |
| 2026-04-30 09:11 | 51.18748 | 2.79181 | 844 ft | 133 kts | 79° |
| 2026-04-30 09:11 | 51.18969 | 2.80655 | 702 ft | 142 kts | 77° |
| 2026-04-30 09:11 | 51.19190 | 2.82165 | 490 ft | 133 kts | 77° |
| 2026-04-30 09:11 | 51.19406 | 2.83580 | 322 ft | 131 kts | 77° |
| 2026-04-30 09:12 | 51.19622 | 2.85035 | 118 ft | 138 kts | 75° |
| 2026-04-30 09:12 | 51.19841 | 2.86476 | 16 ft | 121 kts | 78° |
| 2026-04-30 09:12 | 51.19992 | 2.87228 | 15 ft | 24 kts | 1° |
| 2026-04-30 09:12 | 51.20105 | 2.87150 | 13 ft | 8 kts | 278° |
| 2026-04-30 09:13 | 51.20092 | 2.87043 | 14 ft | 16 kts | 256° |
| 2026-04-30 09:13 | 51.20049 | 2.86792 | 15 ft | 31 kts | 257° |
| 2026-04-30 09:13 | 51.19989 | 2.86385 | 13 ft | 44 kts | 255° |
| 2026-04-30 09:13 | 51.19910 | 2.85851 | 14 ft | 52 kts | 257° |
| 2026-04-30 09:14 | 51.19896 | 2.85604 | 16 ft | 5 kts | 319° |
| 2026-04-30 09:14 | 51.19917 | 2.85574 | 14 ft | 0 kts | 316° |